createdAt,value
2022-08-05T00:01:48.813Z,23.88
2022-08-05T00:04:17.950Z,24.01
2022-08-05T00:06:47.268Z,23.90
2022-08-05T00:09:20.994Z,24.04
2022-08-05T00:11:55.810Z,23.96
2022-08-05T00:14:31.399Z,23.85
2022-08-05T00:17:01.997Z,23.98
2022-08-05T00:19:33.831Z,24.29
2022-08-05T00:22:13.732Z,24.27
2022-08-05T00:24:47.388Z,23.90
2022-08-05T00:27:28.504Z,23.67
2022-08-05T00:30:04.222Z,23.88
2022-08-05T00:32:32.247Z,23.58
2022-08-05T00:35:07.619Z,23.45
2022-08-05T00:37:52.580Z,23.47
2022-08-05T00:40:27.815Z,23.64
2022-08-05T00:42:58.897Z,23.56
2022-08-05T00:45:37.885Z,23.98
2022-08-05T00:48:08.284Z,24.14
2022-08-05T00:50:38.004Z,24.27
2022-08-05T00:53:09.761Z,24.14
2022-08-05T00:55:55.550Z,23.69
2022-08-05T00:58:27.155Z,23.85
2022-08-05T01:00:55.950Z,23.91
2022-08-05T01:03:24.346Z,23.97
2022-08-05T01:06:01.592Z,24.05
2022-08-05T01:08:43.094Z,23.77
2022-08-05T01:11:22.550Z,23.88
2022-08-05T01:14:15.319Z,23.79
2022-08-05T01:16:50.365Z,23.66
2022-08-05T01:20:01.881Z,23.72
2022-08-05T01:22:36.595Z,23.74
2022-08-05T01:25:40.425Z,23.64
2022-08-05T01:28:28.577Z,23.64
2022-08-05T01:31:03.181Z,23.45
2022-08-05T01:33:36.100Z,23.36
2022-08-05T01:36:12.856Z,23.14
2022-08-05T01:38:48.332Z,23.20
2022-08-05T01:41:21.011Z,23.32
2022-08-05T01:43:52.638Z,23.36
2022-08-05T01:46:42.529Z,23.52
2022-08-05T01:49:23.840Z,23.65
2022-08-05T01:51:56.514Z,23.63
2022-08-05T01:54:30.421Z,23.69
2022-08-05T01:58:10.129Z,23.60
2022-08-05T01:59:52.759Z,23.51
2022-08-05T02:02:28.475Z,23.51
2022-08-05T02:05:00.256Z,23.46
2022-08-05T02:07:30.481Z,23.49
2022-08-05T02:09:59.047Z,23.53
2022-08-05T02:12:35.885Z,23.55
2022-08-05T02:15:12.136Z,23.51
2022-08-05T02:18:31.484Z,23.56
2022-08-05T02:20:46.906Z,23.52
2022-08-05T02:23:16.166Z,23.59
2022-08-05T02:25:49.811Z,23.59
2022-08-05T02:28:29.202Z,23.57
2022-08-05T02:31:07.643Z,23.55
2022-08-05T02:33:48.729Z,23.56
2022-08-05T02:36:27.449Z,23.46
2022-08-05T02:38:58.132Z,23.37
2022-08-05T02:41:36.261Z,23.51
2022-08-05T02:44:18.182Z,23.63
2022-08-05T02:46:58.672Z,23.67
2022-08-05T02:49:35.762Z,23.77
2022-08-05T02:52:06.078Z,23.71
2022-08-05T02:54:37.260Z,23.64
2022-08-05T02:57:10.240Z,23.50
2022-08-05T02:59:56.362Z,23.49
2022-08-05T03:02:29.983Z,23.58
2022-08-05T03:05:00.198Z,23.24
2022-08-05T03:08:00.911Z,23.27
2022-08-05T03:10:24.687Z,23.43
2022-08-05T03:12:54.993Z,23.61
2022-08-05T03:15:24.363Z,23.39
2022-08-05T03:17:57.442Z,23.14
2022-08-05T03:20:26.486Z,23.05
2022-08-05T03:22:57.693Z,22.87
2022-08-05T03:25:32.402Z,22.82
2022-08-05T03:28:18.780Z,22.77
2022-08-05T03:30:49.699Z,22.71
2022-08-05T03:33:20.635Z,22.75
2022-08-05T03:35:51.689Z,22.73
2022-08-05T03:38:32.958Z,22.52
2022-08-05T03:41:08.216Z,22.50
2022-08-05T03:44:08.815Z,22.57
2022-08-05T03:46:29.543Z,22.73
2022-08-05T03:48:59.816Z,22.73
2022-08-05T03:52:37.710Z,22.61
2022-08-05T03:55:07.010Z,22.59
2022-08-05T03:57:41.571Z,22.30
2022-08-05T04:00:15.653Z,22.37
2022-08-05T04:02:58.311Z,22.07
2022-08-05T04:05:33.590Z,22.17
2022-08-05T04:08:03.626Z,22.30
2022-08-05T04:10:38.152Z,21.95
2022-08-05T04:13:09.034Z,22.26
2022-08-05T04:15:37.417Z,21.84
2022-08-05T04:18:09.349Z,21.51
2022-08-05T04:20:41.310Z,21.70
2022-08-05T04:23:12.446Z,21.88
2022-08-05T04:26:00.589Z,21.95
2022-08-05T04:28:30.946Z,22.12
2022-08-05T04:31:00.877Z,22.15
2022-08-05T04:33:54.752Z,21.97
2022-08-05T04:36:45.986Z,22.03
2022-08-05T04:39:07.532Z,22.19
2022-08-05T04:41:36.859Z,22.10
2022-08-05T04:44:08.833Z,22.16
2022-08-05T04:46:38.195Z,22.15
2022-08-05T04:49:14.496Z,22.28
2022-08-05T04:51:44.650Z,22.23
2022-08-05T04:54:14.824Z,22.18
2022-08-05T04:56:43.517Z,22.41
2022-08-05T04:59:13.957Z,22.47
2022-08-05T05:02:07.590Z,22.52
2022-08-05T05:04:47.550Z,22.58
2022-08-05T05:07:23.847Z,22.69
2022-08-05T05:09:57.359Z,22.70
2022-08-05T05:12:27.182Z,22.75
2022-08-05T05:14:55.767Z,22.89
2022-08-05T05:17:55.391Z,23.00
2022-08-05T05:20:13.803Z,22.99
2022-08-05T05:22:44.095Z,23.07
2022-08-05T05:25:16.504Z,23.07
2022-08-05T05:27:53.506Z,23.12
2022-08-05T05:30:31.340Z,23.22
2022-08-05T05:33:09.106Z,23.31
2022-08-05T05:35:45.015Z,23.49
2022-08-05T05:38:14.511Z,23.53
2022-08-05T05:40:50.068Z,23.62
2022-08-05T05:43:27.497Z,23.79
2022-08-05T05:46:12.207Z,23.82
2022-08-05T05:48:44.286Z,24.00
2022-08-05T05:51:14.892Z,23.98
2022-08-05T05:53:46.000Z,23.84
2022-08-05T05:56:32.386Z,23.74
2022-08-05T05:59:03.137Z,23.76
2022-08-05T06:01:37.760Z,24.01
2022-08-05T06:04:08.169Z,24.48
2022-08-05T06:06:36.855Z,24.79
2022-08-05T06:09:18.542Z,25.02
2022-08-05T06:11:59.308Z,24.81
2022-08-05T06:14:29.646Z,24.69
2022-08-05T06:16:58.142Z,24.61
2022-08-05T06:19:34.773Z,24.51
2022-08-05T06:22:03.796Z,24.65
2022-08-05T06:24:33.367Z,24.87
2022-08-05T06:27:04.037Z,25.18
2022-08-05T06:29:49.610Z,25.22
2022-08-05T06:32:26.282Z,25.33
2022-08-05T06:34:58.696Z,25.21
2022-08-05T06:37:58.403Z,24.98
2022-08-05T06:40:18.184Z,25.22
2022-08-05T06:42:51.652Z,25.04
2022-08-05T06:45:21.165Z,24.96
2022-08-05T06:48:35.939Z,24.86
2022-08-05T06:50:40.695Z,24.81
2022-08-05T06:53:19.569Z,24.96
2022-08-05T06:55:54.679Z,24.80
2022-08-05T06:58:29.972Z,24.82
2022-08-05T07:01:05.433Z,25.33
2022-08-05T07:03:33.933Z,25.47
2022-08-05T07:06:06.045Z,25.40
2022-08-05T07:08:43.167Z,25.25
2022-08-05T07:11:22.160Z,25.08
2022-08-05T07:14:19.947Z,24.99
2022-08-05T07:18:02.123Z,24.89
2022-08-05T07:22:47.810Z,25.75
2022-08-05T07:25:53.930Z,25.80
2022-08-05T07:28:11.815Z,25.69
2022-08-05T07:30:50.415Z,26.17
2022-08-05T07:33:36.762Z,26.23
2022-08-05T07:36:21.536Z,26.09
2022-08-05T07:38:54.956Z,25.90
2022-08-05T07:42:07.744Z,25.70
2022-08-05T07:44:19.003Z,25.70
2022-08-05T07:46:49.263Z,25.66
2022-08-05T07:49:20.970Z,25.90
2022-08-05T07:54:51.317Z,25.79
2022-08-05T07:58:02.988Z,25.81
2022-08-05T08:00:36.310Z,25.97
2022-08-05T08:03:14.822Z,26.19
2022-08-05T08:05:49.802Z,26.17
2022-08-05T08:08:21.749Z,26.27
2022-08-05T08:10:56.242Z,26.49
2022-08-05T08:13:29.104Z,26.83
2022-08-05T08:16:50.038Z,27.25
2022-08-05T08:18:49.893Z,27.36
2022-08-05T08:21:18.791Z,27.46
2022-08-05T08:24:02.013Z,27.93
2022-08-05T08:26:32.817Z,28.10
2022-08-05T08:29:09.793Z,28.21
2022-08-05T08:31:52.275Z,28.49
2022-08-05T08:34:30.790Z,28.62
2022-08-05T08:37:04.806Z,28.71
2022-08-05T08:39:37.858Z,28.95
2022-08-05T08:42:32.405Z,29.02
2022-08-05T08:45:25.408Z,29.18
2022-08-05T08:48:12.621Z,29.39
2022-08-05T08:51:03.525Z,29.47
2022-08-05T08:53:30.673Z,29.81
2022-08-05T08:56:05.071Z,29.62
2022-08-05T08:58:44.509Z,29.91
2022-08-05T09:01:18.078Z,29.58
2022-08-05T09:03:55.312Z,29.82
2022-08-05T09:06:29.992Z,30.15
2022-08-05T09:09:00.382Z,29.87
2022-08-05T09:11:50.723Z,30.19
2022-08-05T09:14:58.530Z,30.65
2022-08-05T09:17:09.530Z,30.51
2022-08-05T09:20:01.561Z,30.60
2022-08-05T09:23:09.292Z,30.54
2022-08-05T09:26:01.503Z,30.70
2022-08-05T09:28:32.257Z,30.83
2022-08-05T09:32:38.713Z,30.83
2022-08-05T09:33:58.718Z,30.80
2022-08-05T09:36:54.067Z,30.71
2022-08-05T09:39:42.030Z,30.91
2022-08-05T09:42:17.348Z,31.10
2022-08-05T09:44:56.013Z,31.57
2022-08-05T09:47:35.201Z,31.74
2022-08-05T09:50:17.783Z,32.02
2022-08-05T09:53:02.213Z,31.51
2022-08-05T09:55:57.946Z,31.76
2022-08-05T09:58:25.727Z,31.37
2022-08-05T10:01:00.952Z,31.67
2022-08-05T10:03:38.735Z,31.45
2022-08-05T10:06:24.084Z,31.43
2022-08-05T10:08:56.164Z,31.90
2022-08-05T10:11:31.420Z,32.23
2022-08-05T10:14:22.398Z,32.07
2022-08-05T10:16:52.972Z,32.43
2022-08-05T10:19:23.572Z,32.26
2022-08-05T10:22:00.912Z,31.58
2022-08-05T10:24:34.374Z,31.13
2022-08-05T10:27:08.323Z,31.24
2022-08-05T10:30:06.951Z,31.72
2022-08-05T10:32:52.513Z,31.28
2022-08-05T10:35:14.259Z,32.48
2022-08-05T10:37:44.686Z,32.45
2022-08-05T10:40:28.101Z,32.28
2022-08-05T10:42:59.964Z,32.23
2022-08-05T10:45:40.090Z,32.40
2022-08-05T10:48:38.446Z,32.38
2022-08-05T10:51:28.329Z,32.72
2022-08-05T10:54:01.769Z,32.69
2022-08-05T10:56:46.766Z,32.26
2022-08-05T11:00:03.195Z,32.33
2022-08-05T11:02:14.469Z,33.12
2022-08-05T11:04:57.678Z,32.33
2022-08-05T11:07:32.982Z,32.75
2022-08-05T11:10:30.018Z,33.52
2022-08-05T11:13:01.709Z,33.22
2022-08-05T11:16:00.851Z,34.03
2022-08-05T11:18:32.338Z,33.26
2022-08-05T11:21:11.290Z,34.26
2022-08-05T11:24:05.536Z,33.58
2022-08-05T11:26:35.087Z,32.94
2022-08-05T11:29:13.775Z,32.49
2022-08-05T11:31:56.417Z,32.47
2022-08-05T11:34:50.781Z,32.91
2022-08-05T11:38:26.641Z,32.61
2022-08-05T11:41:34.545Z,32.97
2022-08-05T11:44:04.841Z,33.05
2022-08-05T11:46:58.205Z,32.55
2022-08-05T11:49:27.578Z,32.25
2022-08-05T11:51:57.419Z,32.49
2022-08-05T11:54:33.988Z,32.58
2022-08-05T11:57:08.095Z,32.44
2022-08-05T11:59:52.995Z,32.62
2022-08-05T12:02:31.380Z,32.28
2022-08-05T12:05:07.438Z,32.50
2022-08-05T12:08:09.559Z,32.62
2022-08-05T12:10:38.530Z,33.44
2022-08-05T12:13:16.684Z,32.87
2022-08-05T12:15:49.938Z,33.19
2022-08-05T12:18:32.955Z,33.46
2022-08-05T12:21:11.482Z,33.50
2022-08-05T12:23:43.166Z,33.26
2022-08-05T12:26:11.578Z,33.62
2022-08-05T12:28:39.730Z,33.54
2022-08-05T12:31:07.804Z,32.85
2022-08-05T12:33:38.798Z,33.20
2022-08-05T12:36:08.983Z,33.12
2022-08-05T12:38:39.579Z,33.10
2022-08-05T12:41:13.499Z,33.34
2022-08-05T12:43:56.687Z,33.51
2022-08-05T12:46:29.220Z,33.20
2022-08-05T12:49:05.870Z,33.69
2022-08-05T12:52:10.643Z,32.79
2022-08-05T12:54:37.399Z,32.80
2022-08-05T12:57:09.607Z,32.05
2022-08-05T13:01:58.539Z,32.19
2022-08-05T13:02:39.806Z,32.58
2022-08-05T13:05:12.668Z,32.72
2022-08-05T13:08:01.013Z,32.96
2022-08-05T13:10:33.284Z,32.80
2022-08-05T13:13:02.755Z,33.11
2022-08-05T13:15:41.183Z,33.61
2022-08-05T13:18:19.383Z,34.65
2022-08-05T13:20:50.337Z,33.99
2022-08-05T13:23:22.876Z,33.42
2022-08-05T13:25:59.567Z,34.14
2022-08-05T13:28:32.395Z,34.73
2022-08-05T13:31:11.235Z,34.34
2022-08-05T13:34:22.728Z,35.52
2022-08-05T13:36:34.522Z,35.66
2022-08-05T13:39:02.741Z,34.68
2022-08-05T13:41:50.868Z,33.91
2022-08-05T13:44:19.249Z,33.15
2022-08-05T13:47:02.468Z,33.15
2022-08-05T13:49:35.420Z,33.53
2022-08-05T13:52:13.509Z,33.68
2022-08-05T13:54:42.354Z,33.59
2022-08-05T13:57:23.160Z,33.77
2022-08-05T13:59:59.359Z,34.47
2022-08-05T14:02:31.374Z,34.68
2022-08-05T14:05:29.528Z,34.12
2022-08-05T14:08:11.382Z,34.54
2022-08-05T14:10:51.393Z,34.20
2022-08-05T14:13:23.524Z,34.09
2022-08-05T14:16:04.489Z,34.35
2022-08-05T14:18:34.957Z,34.94
2022-08-05T14:22:07.203Z,34.90
2022-08-05T14:23:57.813Z,33.97
2022-08-05T14:26:37.067Z,34.14
2022-08-05T14:29:16.290Z,34.30
2022-08-05T14:32:02.600Z,34.75
2022-08-05T14:34:37.054Z,34.73
2022-08-05T14:37:09.248Z,34.63
2022-08-05T14:39:57.039Z,33.78
2022-08-05T14:42:34.356Z,34.54
2022-08-05T14:45:07.648Z,33.89
2022-08-05T14:48:04.205Z,34.23
2022-08-05T14:50:27.414Z,34.88
2022-08-05T14:52:59.113Z,34.71
2022-08-05T14:55:38.689Z,34.14
2022-08-05T14:58:11.157Z,33.95
2022-08-05T15:00:59.638Z,34.03
2022-08-05T15:03:34.000Z,33.82
2022-08-05T15:06:15.420Z,33.98
2022-08-05T15:08:59.752Z,33.67
2022-08-05T15:11:52.325Z,33.68
2022-08-05T15:14:34.447Z,33.57
2022-08-05T15:17:09.801Z,33.14
2022-08-05T15:19:55.160Z,33.19
2022-08-05T15:22:27.411Z,32.76
2022-08-05T15:24:56.819Z,32.36
2022-08-05T15:27:26.638Z,31.93
2022-08-05T15:30:05.076Z,32.12
2022-08-05T15:32:33.357Z,31.39
2022-08-05T15:35:04.129Z,31.88
2022-08-05T15:38:35.003Z,31.87
2022-08-05T15:40:58.761Z,31.87
2022-08-05T15:43:20.518Z,32.06
2022-08-05T15:46:00.806Z,31.57
2022-08-05T15:48:30.079Z,31.85
2022-08-05T15:51:03.307Z,31.45
2022-08-05T15:53:37.809Z,31.44
2022-08-05T15:56:13.153Z,30.73
2022-08-05T15:58:43.868Z,30.83
2022-08-05T16:01:17.407Z,31.26
2022-08-05T16:03:48.519Z,30.73
2022-08-05T16:06:20.231Z,31.19
2022-08-05T16:08:51.294Z,30.56
2022-08-05T16:11:42.560Z,29.64
2022-08-05T16:14:17.159Z,29.47
2022-08-05T16:16:46.656Z,29.53
2022-08-05T16:19:25.569Z,29.27
2022-08-05T16:22:03.674Z,29.01
2022-08-05T16:24:39.777Z,28.98
2022-08-05T16:27:10.300Z,29.58
2022-08-05T16:29:50.837Z,29.01
2022-08-05T16:32:28.537Z,28.73
2022-08-05T16:34:57.586Z,28.67
2022-08-05T16:38:15.000Z,28.13
2022-08-05T16:40:26.709Z,28.10
2022-08-05T16:42:57.640Z,28.03
2022-08-05T16:46:02.802Z,28.18
2022-08-05T16:48:25.200Z,28.14
2022-08-05T16:50:57.022Z,27.83
2022-08-05T16:53:32.018Z,27.68
2022-08-05T16:56:04.832Z,27.80
2022-08-05T16:58:42.086Z,27.80
2022-08-05T17:01:18.902Z,27.76
2022-08-05T17:03:49.155Z,28.07
2022-08-05T17:06:17.859Z,27.89
2022-08-05T17:08:52.763Z,27.61
2022-08-05T17:11:25.995Z,27.72
2022-08-05T17:14:05.222Z,27.07
2022-08-05T17:16:40.787Z,27.31
2022-08-05T17:19:10.915Z,27.25
2022-08-05T17:21:51.591Z,27.38
2022-08-05T17:24:36.557Z,27.37
2022-08-05T17:27:09.252Z,26.93
2022-08-05T17:29:41.774Z,26.93
2022-08-05T17:32:17.276Z,26.97
2022-08-05T17:34:48.090Z,26.88
2022-08-05T17:37:39.755Z,26.74
2022-08-05T17:40:12.910Z,26.65
2022-08-05T17:42:51.042Z,26.51
2022-08-05T17:45:22.241Z,26.41
2022-08-05T17:47:59.832Z,26.40
2022-08-05T17:50:30.998Z,26.23
2022-08-05T17:53:13.034Z,26.26
2022-08-05T17:55:44.181Z,26.14
2022-08-05T17:58:16.380Z,25.99
2022-08-05T18:00:51.724Z,26.12
2022-08-05T18:03:56.435Z,26.14
2022-08-05T18:06:16.330Z,25.93
2022-08-05T18:08:52.351Z,25.88
2022-08-05T18:11:24.759Z,25.94
2022-08-05T18:14:13.190Z,25.86
2022-08-05T18:16:51.848Z,26.00
2022-08-05T18:19:26.061Z,25.97
2022-08-05T18:22:09.777Z,25.79
2022-08-05T18:24:40.267Z,25.62
2022-08-05T18:27:18.094Z,25.74
2022-08-05T18:29:51.959Z,25.67
2022-08-05T18:32:28.214Z,25.63
2022-08-05T18:34:59.546Z,25.51
2022-08-05T18:37:34.209Z,25.51
2022-08-05T18:41:50.554Z,25.45
2022-08-05T18:42:57.930Z,25.33
2022-08-05T18:45:41.311Z,25.30
2022-08-05T18:48:11.350Z,25.39
2022-08-05T18:51:01.659Z,25.21
2022-08-05T18:53:50.520Z,25.31
2022-08-05T18:56:21.879Z,25.28
2022-08-05T18:58:54.906Z,25.36
2022-08-05T19:01:33.596Z,25.48
2022-08-05T19:04:24.092Z,25.33
2022-08-05T19:06:53.988Z,25.35
2022-08-05T19:09:22.503Z,25.21
2022-08-05T19:11:59.194Z,25.06
2022-08-05T19:14:37.807Z,25.08
2022-08-05T19:17:18.244Z,25.04
2022-08-05T19:19:48.524Z,25.02
2022-08-05T19:22:18.786Z,25.02
2022-08-05T19:24:54.185Z,25.11
2022-08-05T19:27:24.352Z,25.05
2022-08-05T19:29:58.389Z,25.09
2022-08-05T19:32:27.918Z,24.98
2022-08-05T19:34:56.491Z,24.98
2022-08-05T19:37:29.997Z,25.20
2022-08-05T19:40:15.857Z,25.14
2022-08-05T19:43:04.927Z,25.00
2022-08-05T19:45:36.442Z,24.89
2022-08-05T19:48:05.998Z,24.98
2022-08-05T19:50:35.074Z,24.99
2022-08-05T19:53:10.404Z,24.87
2022-08-05T19:56:14.803Z,24.98
2022-08-05T19:58:30.104Z,24.81
2022-08-05T20:00:58.370Z,24.84
2022-08-05T20:03:27.466Z,24.81
2022-08-05T20:06:15.767Z,24.86
2022-08-05T20:08:52.821Z,24.88
2022-08-05T20:11:22.691Z,24.70
2022-08-05T20:13:58.318Z,24.89
2022-08-05T20:16:39.045Z,25.00
2022-08-05T20:19:07.338Z,24.95
2022-08-05T20:21:35.447Z,24.80
2022-08-05T20:24:11.606Z,24.65
2022-08-05T20:26:39.745Z,24.59
2022-08-05T20:29:26.880Z,24.63
2022-08-05T20:31:58.283Z,24.67
2022-08-05T20:34:27.739Z,24.47
2022-08-05T20:36:55.745Z,24.76
2022-08-05T20:39:25.152Z,24.68
2022-08-05T20:42:03.780Z,24.46
2022-08-05T20:44:32.876Z,24.47
2022-08-05T20:47:07.475Z,24.37
2022-08-05T20:49:39.441Z,24.39
2022-08-05T20:52:08.683Z,24.58
2022-08-05T20:54:55.065Z,24.22
2022-08-05T20:57:43.378Z,23.99
2022-08-05T21:00:41.068Z,23.87
2022-08-05T21:03:06.269Z,23.73
2022-08-05T21:05:47.917Z,23.70
2022-08-05T21:08:33.019Z,23.71
2022-08-05T21:11:12.730Z,23.76
2022-08-05T21:13:55.863Z,23.69
2022-08-05T21:16:29.877Z,23.33
2022-08-05T21:19:00.396Z,23.33
2022-08-05T21:21:43.956Z,23.43
2022-08-05T21:24:19.703Z,23.34
2022-08-05T21:26:57.844Z,23.24
2022-08-05T21:29:32.024Z,23.12
2022-08-05T21:32:01.404Z,23.27
2022-08-05T21:34:31.621Z,23.16
2022-08-05T21:37:01.134Z,23.23
2022-08-05T21:39:29.875Z,23.32
2022-08-05T21:42:01.163Z,23.28
2022-08-05T21:44:30.330Z,23.06
2022-08-05T21:46:59.205Z,22.98
2022-08-05T21:49:58.545Z,23.04
2022-08-05T21:52:26.935Z,23.06
2022-08-05T21:54:56.745Z,23.08
2022-08-05T21:57:33.280Z,23.00
2022-08-05T22:00:06.387Z,22.90
2022-08-05T22:02:35.188Z,22.78
2022-08-05T22:05:04.478Z,22.79
2022-08-05T22:07:40.452Z,22.88
2022-08-05T22:10:27.080Z,23.01
2022-08-05T22:12:58.712Z,22.82
2022-08-05T22:16:00.750Z,22.55
2022-08-05T22:18:16.016Z,22.35
2022-08-05T22:20:47.661Z,22.55
2022-08-05T22:24:02.180Z,22.78
2022-08-05T22:26:42.708Z,22.68
2022-08-05T22:29:26.823Z,22.40
2022-08-05T22:31:59.348Z,22.53
2022-08-05T22:34:28.932Z,22.55
2022-08-05T22:36:58.823Z,22.77
2022-08-05T22:39:32.578Z,22.47
2022-08-05T22:42:11.717Z,22.31
2022-08-05T22:44:48.228Z,22.45
2022-08-05T22:47:29.555Z,22.30
2022-08-05T22:50:18.410Z,22.57
2022-08-05T22:52:48.263Z,22.23
2022-08-05T22:55:19.287Z,22.39
2022-08-05T22:57:49.020Z,22.28
2022-08-05T23:00:20.876Z,22.15
2022-08-05T23:02:50.138Z,22.05
2022-08-05T23:05:18.847Z,21.99
2022-08-05T23:07:50.500Z,21.95
2022-08-05T23:10:20.635Z,21.79
2022-08-05T23:12:51.481Z,21.73
2022-08-05T23:15:26.956Z,21.65
2022-08-05T23:18:01.210Z,21.69
2022-08-05T23:20:32.109Z,21.74
2022-08-05T23:23:03.481Z,21.61
2022-08-05T23:25:51.216Z,21.70
2022-08-05T23:28:22.652Z,21.72
2022-08-05T23:30:54.695Z,21.73
2022-08-05T23:33:26.283Z,21.53
2022-08-05T23:36:13.575Z,21.69
2022-08-05T23:38:42.862Z,21.45
2022-08-05T23:41:11.770Z,21.47
2022-08-05T23:44:04.524Z,21.36
2022-08-05T23:46:29.763Z,21.23
2022-08-05T23:49:01.023Z,21.69
2022-08-05T23:51:55.151Z,21.35
2022-08-05T23:54:25.622Z,21.15
2022-08-05T23:56:55.489Z,21.44
2022-08-05T23:59:27.833Z,21.31
